ADDS METAR Data INFO
IDs: Format: Raw Decoded Include TAF

Data at: 1750 UTC 21 Oct 2017

KSLK 211651Z AUTO 20009KT 10SM CLR 20/07 A3027 RMK AO2 SLP254 T02000067
KSLK 211551Z AUTO 25007KT 10SM CLR 18/05 A3027 RMK AO2 SLP255 T01780050
KSLK 211451Z AUTO 22006KT 10SM CLR 15/03 A3028 RMK AO2 SLP262 T01500028 51008
KSLK 211351Z AUTO 23006KT 10SM CLR 13/03 A3028 RMK AO2 SLP261 T01330028
KSLK 211251Z AUTO 00000KT 10SM CLR 08/06 A3027 RMK AO2 SLP263 T00830061
KSLK 211151Z AUTO 00000KT 10SM CLR 01/01 A3025 RMK AO2 SLP259 T00110006 10017 21006 53012
KSLK 211051Z AUTO 00000KT 10SM CLR 00/M01 A3024 RMK AO2 SLP251 T00001006
KSLK 210951Z AUTO 00000KT 10SM CLR 00/M01 A3023 RMK AO2 SLP245 T00001006
KSLK 210851Z AUTO 00000KT 10SM CLR 00/00 A3022 RMK AO2 SLP241 T00000000 51004
KSLK 210751Z AUTO 00000KT 10SM CLR 00/00 A3021 RMK AO2 SLP238 T00000000
KSLK 210651Z AUTO 00000KT 10SM CLR 01/00 A3021 RMK AO2 SLP238 T00060000
KSLK 210551Z AUTO 00000KT 10SM FEW046 01/01 A3020 RMK AO2 SLP236 T00110006 10061 20006 53008
KSLK 210451Z AUTO 00000KT 10SM CLR 02/02 A3020 RMK AO2 SLP233 T00220017 401670017
KSLK 210351Z AUTO 20003KT 10SM CLR 03/02 A3019 RMK AO2 SLP230 T00330017
KSLK 210251Z AUTO 00000KT 10SM CLR 02/01 A3018 RMK AO2 SLP230 T00170011 53009
KSLK 210151Z AUTO 00000KT 10SM CLR 04/02 A3017 RMK AO2 SLP226 T00390017
KSLK 210051Z AUTO 20003KT 10SM CLR 04/02 A3016 RMK AO2 SLP223 T00390017
KSLK 202351Z AUTO 19003KT 10SM CLR 06/02 A3015 RMK AO2 SLP221 T00560022 10167 20056 53008
KSLK 202251Z AUTO 25003KT 10SM CLR 10/01 A3014 RMK AO2 SLP216 T01000011
KSLK 202151Z AUTO 25004KT 10SM CLR 14/00 A3013 RMK AO2 SLP208 T01390000
KSLK 202051Z AUTO 30008KT 270V340 10SM CLR 16/M01 A3013 RMK AO2 SLP206 T01561006 55000
KSLK 201951Z AUTO 30008KT 10SM CLR 17/M01 A3013 RMK AO2 SLP204 T01671006
KSLK 201851Z AUTO 28007G14KT 240V300 10SM CLR 17/M01 A3012 RMK AO2 SLP203 T01671011
KSLK 201751Z AUTO 28009G15KT 10SM CLR 16/M02 A3013 RMK AO2 SLP205 T01561022 10161 20061 58006
KSLK 201651Z AUTO VRB06KT 10SM CLR 14/M01 A3014 RMK AO2 SLP209 T01441011
KSLK 201551Z AUTO 27007KT 210V310 10SM CLR 12/01 A3015 RMK AO2 SLP211 T01220011
KSLK 201451Z AUTO VRB06G15KT 10SM CLR 11/02 A3015 RMK AO2 SLP211 T01110022 51017
KSLK 201351Z AUTO 10SM CLR 10/03 A3014 RMK AO2 SLP208 T01000028
KSLK 201251Z AUTO 25006KT 10SM CLR 08/03 A3012 RMK AO2 SLP205 T00780028
KSLK 201151Z AUTO 25005KT 10SM CLR 06/03 A3010 RMK AO2 SLP196 T00610028 10100 20061 51022
KSLK 201051Z AUTO 25006KT 10SM CLR 06/02 A3007 RMK AO2 SLP187 T00610022
KSLK 200951Z AUTO VRB06KT 10SM CLR 07/02 A3005 RMK AO2 SLP179 T00670022 $
KSLK 200851Z AUTO 24006KT 10SM CLR 07/02 A3003 RMK AO2 SLP170 T00670017 53004 $
KSLK 200751Z AUTO 25005KT 10SM CLR 07/01 A3002 RMK AO2 SLP167 T00720011 $
KSLK 200651Z AUTO 25005KT 10SM CLR 08/01 A3002 RMK AO2 SLP165 T00830011 $
KSLK 200551Z AUTO 25004KT 10SM CLR 10/01 A3001 RMK AO2 SLP163 T01000006 10150 20100 51014 $